Tuesday, September 30, 2014
06:04 UTC
  |  Log In   |  Register Free
Airport Search:

Rwj Airpark Airport
(54T)

Rwj Airpark Airport Diagram
No Airport Diagram Available

FAA data valid effective September 18, 2014 - November 13, 2014 (unless otherwise noted).

 
 
 
 
 
 
 
 
 
 
 
 
 
 

Current Aviation Weather for Rwj Airpark Airport (54T)

METAR data is unavailable for 54T. The nearest METAR location is at KEFD (18.7 nm SW from 54T).

The most recent METAR observation for KEFD was updated at: 0513
METAR Summary (Translated METAR)
KEFD
300450Z 19002KT 10SM FEW035 25/23 A2989
(18.7 nm SW from 54T)
KHOU
300453Z 00000KT 10SM SCT036 24/23 A2987 RMK AO2 SLP120 T02440228
(23.6 nm SW from 54T)
TAF Summary (Translated TAF)
KEFD
3004/0110 VRB06KT 4800 BR FEW015 BKN070 QNH2984INS TEMPO 3012/3015 BKN015 BECMG 3015/3016 VRB06KT 9999 NSW SCT040 QNH2978INS BECMG 0102/0103 16006KT 4800 BR SCT010 QNH2981INS TX30/3019Z TN23/3011Z
KHOU
(6.7 nm NW from KEFD)
300321Z 3003/3024 00000KT P6SM SCT035 FM301500 VRB05KT P6SM SCT025 SCT250 FM301800 12005KT P6SM SCT040 FM302300 14007KT P6SM FEW040 SCT250
  Airport Weather Conditions for 54T

Current weather conditions are
not available for 54T


The nearest NOAA weather station
is at EFD, (18.7 nm SW from 54T)
  
 Current Weather at EFD
79° F
Partly Cloudy
North winds at 0.0 mph
EFD NOAA Radar

Pressure: 29.89 in
Humidity: 79%
Wind: Calm
Dew Point: 71.6°F
Visibility: 10.00 mi


Airport Weather Forecast for 54T

Translated METAR and TAF for KEFD
Translated METAR for KEFD (0558 UTC 30 September 2014)
found at http://aviationweather.gov/adds/metars/
 
METAR text: KEFD 300550Z 00000KT 10SM SCT035 25/23 A2988
Conditions at: KEFD (HOUSTON/ELLINGTO, TX, US) observed 0550 UTC 30 September 2014
Temperature: 25.0°C (77°F)
Dewpoint: 23.0°C (73°F) [RH = 89%]
Pressure (altimeter): 29.88 inches Hg (1011.9 mb)
Winds: calm
Visibility: 10 or more miles (16+ km)
Ceiling: at least 12,000 feet AGL
Clouds: scattered clouds at 3500 feet AGL
Weather: no significant weather observed at this time
Translated TAF for KEFD
Forecast for: KEFD (HOUSTON/ELLINGTO, TX, US)
TAF Text: TAF KEFD 3004/0110 VRB06KT 4800 BR FEW015 BKN070 QNH2984INS
Forecast period: 0400 to 1500 UTC 30 September 2014
Forecast type: FROM: standard forecast or significant change
Winds: variable direction winds at 7 MPH (6 knots; 3.1 m/s)
Visibility: 2.98 miles (4.80 km)
Ceiling: 7000 feet AGL
Clouds: few clouds at 1500 feet AGL
broken clouds at 7000 feet AGL
Weather: BR  (mist)
TAF Text: TEMPO 3012/3015 BKN015
Forecast period: 1200 to 1500 UTC 30 September 2014
Forecast type: TEMPORARY: The following changes expected for less than half the time period
Ceiling: 1500 feet AGL
Clouds: broken clouds at 1500 feet AGL
Weather: no significant weather forecast for this period
TAF Text: BECMG 3015/3016 VRB06KT 9999 NSW SCT040 QNH2978INS
Forecast period: 1500 UTC 30 September 2014 to 0200 UTC 01 October 2014
Forecast type: BECOMING: Conditions expected to become as follows by 1600 UTC 30 September 2014
Winds: variable direction winds at 7 MPH (6 knots; 3.1 m/s)
Visibility: 6 or more miles (10+ km)
Clouds: scattered clouds at 4000 feet AGL
Weather: NSW  (no significant weather)
TAF Text: BECMG 0102/0103 16006KT 4800 BR SCT010 QNH2981INS TX30/3019Z TN23/3011Z
Forecast period: 0200 to 1000 UTC 01 October 2014
Forecast type: BECOMING: Conditions expected to become as follows by 0300 UTC 01 October 2014
Winds: from the SSE (160 degrees) at 7 MPH (6 knots; 3.1 m/s)
Visibility: 2.98 miles (4.80 km)
Clouds: scattered clouds at 1000 feet AGL
Weather: BR  (mist)

Find All Airport Services Find A Hotel Find A Rental Car Find A Golf Course Find A Restaurant $100 Hamburger



FBO's on the Field
FBO Company Facility Photos Services Transportation Aviation Fuel Prices: Prices include tax
Catering Weather Repair Courtesy Rental Type 100LL JetA JetA+ MOGAS 8087
 
Bay Area Aviation Inc

This FBO has not yet been rated
FS:Avfuel
Last Updated: Sep-25
Login to update fuel prices
SS:
Contact Bay Area Aviation IncMore FBO Information
 
Add another FBO Facility Photos Catering Weather Repair Courtesy Rental Type 100LL JetA JetA+ MOGAS 8087
Services Transportation Aviation Fuel Prices: Prices include tax


model-print
model-print
model-print
model-print